sensor_id;sensor_type;location;lat;lon;timestamp;pressure;altitude;pressure_sealevel;temperature;humidity
34177;BME280;20450;49.074;9.158;2022-12-07T00:01:04;99951.63;;;4.52;84.76
34177;BME280;20450;49.074;9.158;2022-12-07T00:03:32;99949.09;;;4.59;84.60
34177;BME280;20450;49.074;9.158;2022-12-07T00:06:00;99944.25;;;4.62;84.27
34177;BME280;20450;49.074;9.158;2022-12-07T00:08:29;99944.09;;;4.64;84.15
34177;BME280;20450;49.074;9.158;2022-12-07T00:11:01;99949.75;;;4.69;83.70
34177;BME280;20450;49.074;9.158;2022-12-07T00:13:29;99945.75;;;4.73;83.30
34177;BME280;20450;49.074;9.158;2022-12-07T00:16:00;99936.38;;;4.77;83.22
34177;BME280;20450;49.074;9.158;2022-12-07T00:18:27;99949.75;;;4.77;83.33
34177;BME280;20450;49.074;9.158;2022-12-07T00:20:59;99937.38;;;4.76;83.54
34177;BME280;20450;49.074;9.158;2022-12-07T00:23:26;99938.69;;;4.72;83.51
34177;BME280;20450;49.074;9.158;2022-12-07T00:25:53;99931.56;;;4.64;83.83
34177;BME280;20450;49.074;9.158;2022-12-07T00:28:21;99934.38;;;4.71;84.27
34177;BME280;20450;49.074;9.158;2022-12-07T00:30:48;99937.72;;;4.73;83.67
34177;BME280;20450;49.074;9.158;2022-12-07T00:33:15;99934.69;;;4.76;83.74
34177;BME280;20450;49.074;9.158;2022-12-07T00:35:42;99929.34;;;4.76;83.63
34177;BME280;20450;49.074;9.158;2022-12-07T00:38:09;99930.66;;;4.80;84.01
34177;BME280;20450;49.074;9.158;2022-12-07T00:40:35;99923.19;;;4.59;83.93
34177;BME280;20450;49.074;9.158;2022-12-07T00:43:02;99924.72;;;3.97;86.52
34177;BME280;20450;49.074;9.158;2022-12-07T00:45:31;99922.91;;;3.98;87.16
34177;BME280;20450;49.074;9.158;2022-12-07T00:47:58;99935.09;;;4.08;86.93
34177;BME280;20450;49.074;9.158;2022-12-07T00:50:24;99933.72;;;3.88;87.59
34177;BME280;20450;49.074;9.158;2022-12-07T00:52:51;99921.91;;;3.91;87.60
34177;BME280;20450;49.074;9.158;2022-12-07T00:55:18;99926.06;;;3.93;87.46
34177;BME280;20450;49.074;9.158;2022-12-07T00:57:45;99920.91;;;4.00;87.57
34177;BME280;20450;49.074;9.158;2022-12-07T01:00:12;99931.41;;;4.09;87.30
34177;BME280;20450;49.074;9.158;2022-12-07T01:02:41;99927.59;;;4.12;86.98
34177;BME280;20450;49.074;9.158;2022-12-07T01:05:08;99928.44;;;4.04;87.13
34177;BME280;20450;49.074;9.158;2022-12-07T01:07:35;99929.41;;;4.12;87.24
34177;BME280;20450;49.074;9.158;2022-12-07T01:10:03;99935.13;;;4.17;87.04
34177;BME280;20450;49.074;9.158;2022-12-07T01:12:30;99933.09;;;4.19;87.07
34177;BME280;20450;49.074;9.158;2022-12-07T01:14:57;99933.75;;;4.13;87.31
34177;BME280;20450;49.074;9.158;2022-12-07T01:17:24;99926.75;;;4.12;87.40
34177;BME280;20450;49.074;9.158;2022-12-07T01:19:52;99923.09;;;4.04;87.25
34177;BME280;20450;49.074;9.158;2022-12-07T01:22:19;99923.06;;;4.13;87.16
34177;BME280;20450;49.074;9.158;2022-12-07T01:24:45;99927.09;;;4.17;86.96
34177;BME280;20450;49.074;9.158;2022-12-07T01:27:12;99924.41;;;4.17;86.88
34177;BME280;20450;49.074;9.158;2022-12-07T01:29:39;99927.59;;;4.12;86.94
34177;BME280;20450;49.074;9.158;2022-12-07T01:32:07;99928.25;;;4.06;87.95
34177;BME280;20450;49.074;9.158;2022-12-07T01:34:34;99939.28;;;4.11;87.80
34177;BME280;20450;49.074;9.158;2022-12-07T01:37:02;99938.09;;;3.97;87.92
34177;BME280;20450;49.074;9.158;2022-12-07T01:39:29;99936.41;;;3.88;88.88
34177;BME280;20450;49.074;9.158;2022-12-07T01:41:56;99931.56;;;3.84;88.39
34177;BME280;20450;49.074;9.158;2022-12-07T01:44:25;99934.56;;;3.89;88.58
34177;BME280;20450;49.074;9.158;2022-12-07T01:46:55;99935.94;;;4.01;88.34
34177;BME280;20450;49.074;9.158;2022-12-07T01:49:30;99936.44;;;4.13;88.00
34177;BME280;20450;49.074;9.158;2022-12-07T01:52:13;99928.25;;;4.06;87.27
34177;BME280;20450;49.074;9.158;2022-12-07T01:54:46;99923.41;;;4.01;87.96
34177;BME280;20450;49.074;9.158;2022-12-07T01:57:16;99926.06;;;3.93;88.64
34177;BME280;20450;49.074;9.158;2022-12-07T01:59:45;99925.56;;;3.90;88.80
34177;BME280;20450;49.074;9.158;2022-12-07T02:02:19;99930.41;;;3.86;88.96
34177;BME280;20450;49.074;9.158;2022-12-07T02:04:50;99935.06;;;3.84;88.78
34177;BME280;20450;49.074;9.158;2022-12-07T02:07:21;99931.06;;;3.80;89.64
34177;BME280;20450;49.074;9.158;2022-12-07T02:09:50;99931.41;;;3.93;89.75
34177;BME280;20450;49.074;9.158;2022-12-07T02:12:17;99930.22;;;3.96;89.18
34177;BME280;20450;49.074;9.158;2022-12-07T02:14:45;99933.75;;;3.96;89.32
34177;BME280;20450;49.074;9.158;2022-12-07T02:17:21;99934.75;;;3.95;89.04
34177;BME280;20450;49.074;9.158;2022-12-07T02:20:11;99918.72;;;3.95;89.42
34177;BME280;20450;49.074;9.158;2022-12-07T02:23:10;99920.56;;;3.95;89.27
34177;BME280;20450;49.074;9.158;2022-12-07T02:26:13;99908.53;;;3.99;89.35
34177;BME280;20450;49.074;9.158;2022-12-07T02:29:10;99907.34;;;3.85;89.96
34177;BME280;20450;49.074;9.158;2022-12-07T02:31:46;99916.69;;;3.81;89.93
34177;BME280;20450;49.074;9.158;2022-12-07T02:34:28;99922.38;;;3.70;90.64
34177;BME280;20450;49.074;9.158;2022-12-07T02:37:07;99914.38;;;3.70;91.02
34177;BME280;20450;49.074;9.158;2022-12-07T02:39:47;99907.16;;;3.55;91.41
34177;BME280;20450;49.074;9.158;2022-12-07T02:42:21;99901.44;;;3.50;91.50
34177;BME280;20450;49.074;9.158;2022-12-07T02:44:55;99892.94;;;3.46;91.89
34177;BME280;20450;49.074;9.158;2022-12-07T02:47:24;99887.25;;;3.41;91.72
34177;BME280;20450;49.074;9.158;2022-12-07T02:49:53;99880.25;;;3.40;91.11
34177;BME280;20450;49.074;9.158;2022-12-07T02:52:20;99889.94;;;3.41;91.21
34177;BME280;20450;49.074;9.158;2022-12-07T02:54:47;99893.97;;;3.53;90.84
34177;BME280;20450;49.074;9.158;2022-12-07T02:57:26;99898.66;;;3.67;90.87
34177;BME280;20450;49.074;9.158;2022-12-07T03:00:08;99912.19;;;3.82;90.70
34177;BME280;20450;49.074;9.158;2022-12-07T03:02:48;99907.19;;;3.95;90.64
34177;BME280;20450;49.074;9.158;2022-12-07T03:05:28;99914.56;;;4.09;90.18
34177;BME280;20450;49.074;9.158;2022-12-07T03:08:13;99909.03;;;4.19;89.66
34177;BME280;20450;49.074;9.158;2022-12-07T03:10:52;99902.34;;;4.23;88.77
34177;BME280;20450;49.074;9.158;2022-12-07T03:13:28;99905.34;;;3.87;90.04
34177;BME280;20450;49.074;9.158;2022-12-07T03:16:05;99900.19;;;3.94;89.92
34177;BME280;20450;49.074;9.158;2022-12-07T03:18:40;99893.50;;;3.98;89.86
34177;BME280;20450;49.074;9.158;2022-12-07T03:21:17;99890.00;;;4.05;89.93
34177;BME280;20450;49.074;9.158;2022-12-07T03:23:51;99873.47;;;3.94;89.24
34177;BME280;20450;49.074;9.158;2022-12-07T03:26:24;99878.97;;;3.68;89.58
34177;BME280;20450;49.074;9.158;2022-12-07T03:29:01;99862.56;;;3.47;90.38
34177;BME280;20450;49.074;9.158;2022-12-07T03:31:38;99854.69;;;3.38;90.85
34177;BME280;20450;49.074;9.158;2022-12-07T03:34:11;99845.53;;;3.32;91.50
34177;BME280;20450;49.074;9.158;2022-12-07T03:36:46;99851.50;;;3.26;91.83
34177;BME280;20450;49.074;9.158;2022-12-07T03:39:22;99852.53;;;3.25;91.51
34177;BME280;20450;49.074;9.158;2022-12-07T03:41:56;99856.84;;;3.26;91.85
34177;BME280;20450;49.074;9.158;2022-12-07T03:44:28;99859.38;;;3.36;91.85
34177;BME280;20450;49.074;9.158;2022-12-07T03:47:04;99862.41;;;3.49;92.08
34177;BME280;20450;49.074;9.158;2022-12-07T03:49:43;99864.44;;;3.63;91.06
34177;BME280;20450;49.074;9.158;2022-12-07T03:52:20;99863.09;;;3.75;91.01
34177;BME280;20450;49.074;9.158;2022-12-07T03:54:58;99878.63;;;3.87;90.33
34177;BME280;20450;49.074;9.158;2022-12-07T03:57:28;99868.44;;;3.99;90.05
34177;BME280;20450;49.074;9.158;2022-12-07T03:59:58;99856.09;;;4.06;89.58
34177;BME280;20450;49.074;9.158;2022-12-07T04:02:28;99857.94;;;4.14;88.71
34177;BME280;20450;49.074;9.158;2022-12-07T04:04:56;99863.91;;;4.16;88.49
34177;BME280;20450;49.074;9.158;2022-12-07T04:07:23;99872.63;;;4.18;88.46
34177;BME280;20450;49.074;9.158;2022-12-07T04:09:50;99878.81;;;4.18;88.18
34177;BME280;20450;49.074;9.158;2022-12-07T04:12:17;99888.97;;;4.23;87.71
34177;BME280;20450;49.074;9.158;2022-12-07T04:14:44;99886.13;;;4.24;87.70
34177;BME280;20450;49.074;9.158;2022-12-07T04:17:11;99883.13;;;4.27;87.61
34177;BME280;20450;49.074;9.158;2022-12-07T04:19:40;99878.44;;;4.29;87.97
34177;BME280;20450;49.074;9.158;2022-12-07T04:22:07;99883.44;;;4.32;87.86
34177;BME280;20450;49.074;9.158;2022-12-07T04:24:34;99869.22;;;4.32;87.11
34177;BME280;20450;49.074;9.158;2022-12-07T04:27:02;99865.91;;;4.30;87.03
34177;BME280;20450;49.074;9.158;2022-12-07T04:29:30;99865.09;;;4.05;86.98
34177;BME280;20450;49.074;9.158;2022-12-07T04:31:56;99856.44;;;4.03;87.82
34177;BME280;20450;49.074;9.158;2022-12-07T04:34:24;99868.13;;;3.94;88.04
34177;BME280;20450;49.074;9.158;2022-12-07T04:36:52;99869.78;;;4.03;88.03
34177;BME280;20450;49.074;9.158;2022-12-07T04:39:21;99875.78;;;4.05;87.81
34177;BME280;20450;49.074;9.158;2022-12-07T04:41:50;99872.31;;;4.04;87.60
34177;BME280;20450;49.074;9.158;2022-12-07T04:44:18;99861.09;;;4.01;87.31
34177;BME280;20450;49.074;9.158;2022-12-07T04:46:46;99865.09;;;3.89;87.88
34177;BME280;20450;49.074;9.158;2022-12-07T04:49:14;99862.78;;;3.94;88.03
34177;BME280;20450;49.074;9.158;2022-12-07T04:51:42;99866.94;;;3.72;88.71
34177;BME280;20450;49.074;9.158;2022-12-07T04:54:10;99864.44;;;3.63;88.66
34177;BME280;20450;49.074;9.158;2022-12-07T04:56:38;99858.72;;;3.42;89.47
34177;BME280;20450;49.074;9.158;2022-12-07T04:59:06;99855.53;;;3.38;89.79
34177;BME280;20450;49.074;9.158;2022-12-07T05:01:33;99862.06;;;3.52;89.86
34177;BME280;20450;49.074;9.158;2022-12-07T05:04:01;99870.25;;;3.66;89.88
34177;BME280;20450;49.074;9.158;2022-12-07T05:06:28;99881.13;;;3.81;89.05
34177;BME280;20450;49.074;9.158;2022-12-07T05:08:55;99873.97;;;3.89;89.31
34177;BME280;20450;49.074;9.158;2022-12-07T05:11:23;99868.13;;;3.94;88.59
34177;BME280;20450;49.074;9.158;2022-12-07T05:13:50;99869.63;;;3.96;88.39
34177;BME280;20450;49.074;9.158;2022-12-07T05:16:17;99868.28;;;4.00;88.29
34177;BME280;20450;49.074;9.158;2022-12-07T05:18:45;99869.63;;;4.04;88.00
34177;BME280;20450;49.074;9.158;2022-12-07T05:21:11;99871.63;;;4.11;87.13
34177;BME280;20450;49.074;9.158;2022-12-07T05:23:38;99869.25;;;4.16;87.45
34177;BME280;20450;49.074;9.158;2022-12-07T05:26:05;99868.44;;;4.15;87.21
34177;BME280;20450;49.074;9.158;2022-12-07T05:28:33;99868.28;;;4.17;86.89
34177;BME280;20450;49.074;9.158;2022-12-07T05:31:00;99861.91;;;4.18;86.93
34177;BME280;20450;49.074;9.158;2022-12-07T05:33:27;99855.22;;;4.22;86.80
34177;BME280;20450;49.074;9.158;2022-12-07T05:35:54;99854.91;;;4.17;86.38
34177;BME280;20450;49.074;9.158;2022-12-07T05:38:21;99852.75;;;4.04;86.75
34177;BME280;20450;49.074;9.158;2022-12-07T05:40:48;99851.56;;;4.06;86.83
34177;BME280;20450;49.074;9.158;2022-12-07T05:43:15;99853.25;;;4.07;87.13
34177;BME280;20450;49.074;9.158;2022-12-07T05:45:43;99848.25;;;3.64;87.95
34177;BME280;20450;49.074;9.158;2022-12-07T05:48:10;99852.06;;;3.46;89.24
34177;BME280;20450;49.074;9.158;2022-12-07T05:50:37;99834.84;;;3.24;90.21
34177;BME280;20450;49.074;9.158;2022-12-07T05:53:04;99840.66;;;3.20;90.73
34177;BME280;20450;49.074;9.158;2022-12-07T05:55:31;99846.16;;;3.26;90.39
34177;BME280;20450;49.074;9.158;2022-12-07T05:57:58;99849.34;;;3.38;89.88
34177;BME280;20450;49.074;9.158;2022-12-07T06:00:25;99852.56;;;3.49;89.53
34177;BME280;20450;49.074;9.158;2022-12-07T06:02:53;99858.75;;;3.58;89.12
34177;BME280;20450;49.074;9.158;2022-12-07T06:05:20;99860.75;;;3.64;88.36
34177;BME280;20450;49.074;9.158;2022-12-07T06:07:47;99860.59;;;3.65;88.32
34177;BME280;20450;49.074;9.158;2022-12-07T06:10:14;99871.63;;;3.70;87.84
34177;BME280;20450;49.074;9.158;2022-12-07T06:12:42;99864.78;;;3.76;87.61
34177;BME280;20450;49.074;9.158;2022-12-07T06:15:10;99862.94;;;3.84;87.83
34177;BME280;20450;49.074;9.158;2022-12-07T06:17:36;99863.59;;;3.94;87.33
34177;BME280;20450;49.074;9.158;2022-12-07T06:20:06;99863.94;;;3.99;86.76
34177;BME280;20450;49.074;9.158;2022-12-07T06:22:33;99859.91;;;4.03;86.29
34177;BME280;20450;49.074;9.158;2022-12-07T06:25:00;99863.44;;;4.04;85.79
34177;BME280;20450;49.074;9.158;2022-12-07T06:27:34;99864.13;;;4.06;86.06
34177;BME280;20450;49.074;9.158;2022-12-07T06:30:01;99867.94;;;4.20;90.50
34177;BME280;20450;49.074;9.158;2022-12-07T06:32:28;99871.78;;;4.09;86.86
34177;BME280;20450;49.074;9.158;2022-12-07T06:34:55;99869.59;;;4.21;90.52
34177;BME280;20450;49.074;9.158;2022-12-07T06:37:23;99861.91;;;4.09;87.71
34177;BME280;20450;49.074;9.158;2022-12-07T06:39:50;99864.63;;;3.77;87.56
34177;BME280;20450;49.074;9.158;2022-12-07T06:42:17;99863.63;;;3.70;86.48
34177;BME280;20450;49.074;9.158;2022-12-07T06:44:44;99866.59;;;3.75;87.14
34177;BME280;20450;49.074;9.158;2022-12-07T06:47:11;99859.91;;;4.03;90.26
34177;BME280;20450;49.074;9.158;2022-12-07T06:49:58;99857.91;;;3.97;87.19
34177;BME280;20450;49.074;9.158;2022-12-07T06:52:26;99870.63;;;3.87;86.41
34177;BME280;20450;49.074;9.158;2022-12-07T06:54:53;99865.09;;;3.89;86.83
34177;BME280;20450;49.074;9.158;2022-12-07T06:57:20;99865.28;;;3.87;86.71
34177;BME280;20450;49.074;9.158;2022-12-07T06:59:47;99863.78;;;4.01;86.48
34177;BME280;20450;49.074;9.158;2022-12-07T07:02:14;99873.13;;;4.13;86.39
34177;BME280;20450;49.074;9.158;2022-12-07T07:04:42;99872.94;;;4.15;86.39
34177;BME280;20450;49.074;9.158;2022-12-07T07:07:08;99868.63;;;4.05;86.51
34177;BME280;20450;49.074;9.158;2022-12-07T07:09:36;99867.09;;;4.19;87.03
34177;BME280;20450;49.074;9.158;2022-12-07T07:12:04;99872.25;;;4.37;88.14
34177;BME280;20450;49.074;9.158;2022-12-07T07:14:30;99878.06;;;4.56;87.77
34177;BME280;20450;49.074;9.158;2022-12-07T07:16:57;99879.22;;;4.62;85.42
34177;BME280;20450;49.074;9.158;2022-12-07T07:19:24;99880.91;;;4.63;84.45
34177;BME280;20450;49.074;9.158;2022-12-07T07:21:51;99890.25;;;4.59;83.51
34177;BME280;20450;49.074;9.158;2022-12-07T07:24:18;99886.25;;;4.47;82.63
34177;BME280;20450;49.074;9.158;2022-12-07T07:26:46;99883.28;;;4.34;82.94
34177;BME280;20450;49.074;9.158;2022-12-07T07:29:13;99885.78;;;4.27;82.61
34177;BME280;20450;49.074;9.158;2022-12-07T07:31:40;99890.66;;;4.16;83.26
34177;BME280;20450;49.074;9.158;2022-12-07T07:34:07;99887.16;;;4.15;83.31
34177;BME280;20450;49.074;9.158;2022-12-07T07:36:34;99892.50;;;4.15;83.24
34177;BME280;20450;49.074;9.158;2022-12-07T07:39:00;99880.31;;;4.04;83.43
34177;BME280;20450;49.074;9.158;2022-12-07T07:41:27;99896.66;;;4.09;85.72
34177;BME280;20450;49.074;9.158;2022-12-07T07:43:56;99887.97;;;4.16;84.26
34177;BME280;20450;49.074;9.158;2022-12-07T07:46:23;99908.03;;;4.20;83.97
34177;BME280;20450;49.074;9.158;2022-12-07T07:48:50;99895.16;;;4.23;82.69
34177;BME280;20450;49.074;9.158;2022-12-07T07:51:17;99902.00;;;4.34;83.01
34177;BME280;20450;49.074;9.158;2022-12-07T07:53:43;99899.63;;;4.47;82.17
34177;BME280;20450;49.074;9.158;2022-12-07T07:56:10;99893.94;;;4.58;81.69
34177;BME280;20450;49.074;9.158;2022-12-07T07:58:37;99899.47;;;4.64;81.25
34177;BME280;20450;49.074;9.158;2022-12-07T08:01:06;99902.44;;;4.69;81.05
34177;BME280;20450;49.074;9.158;2022-12-07T08:03:34;99898.91;;;4.77;80.69
34177;BME280;20450;49.074;9.158;2022-12-07T08:06:02;99901.97;;;4.66;80.69
34177;BME280;20450;49.074;9.158;2022-12-07T08:08:29;99902.63;;;4.60;81.18
34177;BME280;20450;49.074;9.158;2022-12-07T08:10:56;99901.63;;;4.61;81.42
34177;BME280;20450;49.074;9.158;2022-12-07T08:13:23;99905.63;;;4.73;80.97
34177;BME280;20450;49.074;9.158;2022-12-07T08:15:56;99919.44;;;4.84;80.62
34177;BME280;20450;49.074;9.158;2022-12-07T08:18:24;99917.56;;;4.93;80.47
34177;BME280;20450;49.074;9.158;2022-12-07T08:20:51;99917.19;;;5.12;83.75
34177;BME280;20450;49.074;9.158;2022-12-07T08:23:18;99915.31;;;5.20;79.64
34177;BME280;20450;49.074;9.158;2022-12-07T08:25:45;99911.09;;;5.26;79.16
34177;BME280;20450;49.074;9.158;2022-12-07T08:28:12;99914.91;;;5.31;78.75
34177;BME280;20450;49.074;9.158;2022-12-07T08:30:39;99915.06;;;5.38;78.27
34177;BME280;20450;49.074;9.158;2022-12-07T08:33:06;99912.69;;;5.43;78.09
34177;BME280;20450;49.074;9.158;2022-12-07T08:35:34;99914.69;;;5.49;77.99
34177;BME280;20450;49.074;9.158;2022-12-07T08:38:01;99916.81;;;5.53;77.79
34177;BME280;20450;49.074;9.158;2022-12-07T08:40:29;99913.78;;;5.56;77.19
34177;BME280;20450;49.074;9.158;2022-12-07T08:42:56;99918.81;;;5.59;76.52
34177;BME280;20450;49.074;9.158;2022-12-07T08:45:23;99913.06;;;5.62;75.77
34177;BME280;20450;49.074;9.158;2022-12-07T08:47:56;99913.72;;;5.64;76.60
34177;BME280;20450;49.074;9.158;2022-12-07T08:50:27;99907.16;;;5.67;75.55
34177;BME280;20450;49.074;9.158;2022-12-07T08:52:58;99911.19;;;5.71;75.46
34177;BME280;20450;49.074;9.158;2022-12-07T08:55:27;99913.34;;;5.75;74.89
34177;BME280;20450;49.074;9.158;2022-12-07T08:57:57;99911.19;;;5.71;74.45
34177;BME280;20450;49.074;9.158;2022-12-07T09:00:24;99916.19;;;5.43;74.43
34177;BME280;20450;49.074;9.158;2022-12-07T09:02:53;99922.03;;;5.47;74.66
34177;BME280;20450;49.074;9.158;2022-12-07T09:05:20;99915.66;;;5.48;73.92
34177;BME280;20450;49.074;9.158;2022-12-07T09:07:49;99908.16;;;5.43;74.62
34177;BME280;20450;49.074;9.158;2022-12-07T09:10:22;99915.97;;;5.53;74.34
34177;BME280;20450;49.074;9.158;2022-12-07T09:12:49;99911.56;;;5.60;73.29
34177;BME280;20450;49.074;9.158;2022-12-07T09:15:16;99914.31;;;5.52;73.44
34177;BME280;20450;49.074;9.158;2022-12-07T09:17:43;99908.25;;;5.58;73.64
34177;BME280;20450;49.074;9.158;2022-12-07T09:20:11;99913.38;;;5.67;73.05
34177;BME280;20450;49.074;9.158;2022-12-07T09:22:38;99910.53;;;5.69;73.22
34177;BME280;20450;49.074;9.158;2022-12-07T09:25:06;99914.13;;;5.84;78.27
34177;BME280;20450;49.074;9.158;2022-12-07T09:27:34;99918.06;;;5.96;76.69
34177;BME280;20450;49.074;9.158;2022-12-07T09:30:01;99920.53;;;6.06;77.87
34177;BME280;20450;49.074;9.158;2022-12-07T09:32:29;99918.44;;;6.16;77.99
34177;BME280;20450;49.074;9.158;2022-12-07T09:34:56;99921.22;;;6.22;75.40
34177;BME280;20450;49.074;9.158;2022-12-07T09:37:23;99919.25;;;6.16;73.59
34177;BME280;20450;49.074;9.158;2022-12-07T09:39:50;99919.50;;;6.07;74.11
34177;BME280;20450;49.074;9.158;2022-12-07T09:42:29;99920.03;;;6.02;74.95
34177;BME280;20450;49.074;9.158;2022-12-07T09:45:05;99917.47;;;6.08;77.97
34177;BME280;20450;49.074;9.158;2022-12-07T09:47:34;99921.69;;;6.03;75.98
34177;BME280;20450;49.074;9.158;2022-12-07T09:50:05;99921.44;;;5.98;76.80
34177;BME280;20450;49.074;9.158;2022-12-07T09:52:38;99912.47;;;5.83;75.61
34177;BME280;20450;49.074;9.158;2022-12-07T09:55:11;99909.16;;;5.73;75.71
34177;BME280;20450;49.074;9.158;2022-12-07T09:57:39;99914.44;;;5.58;75.80
34177;BME280;20450;49.074;9.158;2022-12-07T10:00:13;99914.44;;;5.58;76.85
34177;BME280;20450;49.074;9.158;2022-12-07T10:02:43;99910.13;;;5.49;76.41
34177;BME280;20450;49.074;9.158;2022-12-07T10:05:15;99908.63;;;5.55;77.64
34177;BME280;20450;49.074;9.158;2022-12-07T10:07:50;99902.06;;;5.57;76.80
34177;BME280;20450;49.074;9.158;2022-12-07T10:10:22;99908.16;;;5.74;78.39
34177;BME280;20450;49.074;9.158;2022-12-07T10:12:54;99902.44;;;5.77;77.11
34177;BME280;20450;49.074;9.158;2022-12-07T10:15:41;99899.09;;;5.75;76.58
34177;BME280;20450;49.074;9.158;2022-12-07T10:18:27;99894.00;;;5.88;76.81
34177;BME280;20450;49.074;9.158;2022-12-07T10:21:04;99888.19;;;5.84;76.70
34177;BME280;20450;49.074;9.158;2022-12-07T10:23:38;99884.13;;;5.80;76.65
34177;BME280;20450;49.074;9.158;2022-12-07T10:26:20;99887.09;;;5.93;76.09
34177;BME280;20450;49.074;9.158;2022-12-07T10:28:54;99891.56;;;6.01;78.82
34177;BME280;20450;49.074;9.158;2022-12-07T10:31:24;99883.16;;;6.04;76.88
34177;BME280;20450;49.074;9.158;2022-12-07T10:33:52;99881.44;;;6.11;76.17
34177;BME280;20450;49.074;9.158;2022-12-07T10:36:23;99883.66;;;6.22;77.68
34177;BME280;20450;49.074;9.158;2022-12-07T10:38:58;99876.28;;;6.39;75.21
34177;BME280;20450;49.074;9.158;2022-12-07T10:41:26;99875.84;;;6.35;74.23
34177;BME280;20450;49.074;9.158;2022-12-07T10:43:56;99868.00;;;6.48;76.42
34177;BME280;20450;49.074;9.158;2022-12-07T10:46:45;99874.47;;;6.54;73.79
34177;BME280;20450;49.074;9.158;2022-12-07T10:49:37;99871.72;;;6.47;74.78
34177;BME280;20450;49.074;9.158;2022-12-07T10:52:24;99863.75;;;6.54;75.11
34177;BME280;20450;49.074;9.158;2022-12-07T10:55:18;99863.28;;;6.50;74.12
34177;BME280;20450;49.074;9.158;2022-12-07T10:58:00;99856.97;;;6.43;74.46
34177;BME280;20450;49.074;9.158;2022-12-07T11:00:46;99860.00;;;6.26;74.84
34177;BME280;20450;49.074;9.158;2022-12-07T11:03:36;99857.44;;;6.32;74.99
34177;BME280;20450;49.074;9.158;2022-12-07T11:06:21;99857.34;;;6.40;74.22
34177;BME280;20450;49.074;9.158;2022-12-07T11:09:06;99848.72;;;6.30;74.43
34177;BME280;20450;49.074;9.158;2022-12-07T11:12:20;99849.19;;;6.34;74.46
34177;BME280;20450;49.074;9.158;2022-12-07T11:14:56;99849.94;;;6.28;74.17
34177;BME280;20450;49.074;9.158;2022-12-07T11:17:36;99850.50;;;6.38;74.97
34177;BME280;20450;49.074;9.158;2022-12-07T11:20:22;99847.09;;;6.44;74.01
34177;BME280;20450;49.074;9.158;2022-12-07T11:23:07;99840.31;;;6.33;74.91
34177;BME280;20450;49.074;9.158;2022-12-07T11:25:49;99838.72;;;6.24;75.83
34177;BME280;20450;49.074;9.158;2022-12-07T11:28:34;99843.84;;;6.34;75.35
34177;BME280;20450;49.074;9.158;2022-12-07T11:31:30;99835.69;;;6.42;74.67
34177;BME280;20450;49.074;9.158;2022-12-07T11:34:09;99828.66;;;6.41;74.87
34177;BME280;20450;49.074;9.158;2022-12-07T11:36:50;99829.28;;;6.28;74.81
34177;BME280;20450;49.074;9.158;2022-12-07T11:39:26;99831.41;;;6.18;75.59
34177;BME280;20450;49.074;9.158;2022-12-07T11:42:02;99836.78;;;6.18;75.52
34177;BME280;20450;49.074;9.158;2022-12-07T11:44:37;99832.06;;;6.20;75.92
34177;BME280;20450;49.074;9.158;2022-12-07T11:47:14;99823.91;;;6.14;75.92
34177;BME280;20450;49.074;9.158;2022-12-07T11:49:52;99823.00;;;6.21;76.15
34177;BME280;20450;49.074;9.158;2022-12-07T11:52:27;99825.50;;;6.23;76.22
34177;BME280;20450;49.074;9.158;2022-12-07T11:55:16;99816.25;;;6.25;75.71
34177;BME280;20450;49.074;9.158;2022-12-07T11:57:52;99813.91;;;6.22;76.22
34177;BME280;20450;49.074;9.158;2022-12-07T12:00:27;99804.22;;;6.07;75.50
34177;BME280;20450;49.074;9.158;2022-12-07T12:02:59;99809.09;;;6.03;76.11
34177;BME280;20450;49.074;9.158;2022-12-07T12:05:30;99806.13;;;5.98;75.96
34177;BME280;20450;49.074;9.158;2022-12-07T12:08:05;99813.53;;;5.96;75.95
34177;BME280;20450;49.074;9.158;2022-12-07T12:11:12;99808.34;;;5.94;76.39
34177;BME280;20450;49.074;9.158;2022-12-07T12:14:03;99800.53;;;5.85;76.53
34177;BME280;20450;49.074;9.158;2022-12-07T12:17:19;99797.72;;;5.78;76.47
34177;BME280;20450;49.074;9.158;2022-12-07T12:20:20;99794.81;;;5.88;77.00
34177;BME280;20450;49.074;9.158;2022-12-07T12:22:58;99794.44;;;5.91;77.16
34177;BME280;20450;49.074;9.158;2022-12-07T12:25:39;99789.38;;;5.96;77.27
34177;BME280;20450;49.074;9.158;2022-12-07T12:28:21;99788.13;;;6.07;75.91
34177;BME280;20450;49.074;9.158;2022-12-07T12:31:08;99794.59;;;6.12;76.07
34177;BME280;20450;49.074;9.158;2022-12-07T12:33:43;99785.16;;;6.16;75.86
34177;BME280;20450;49.074;9.158;2022-12-07T12:36:21;99787.56;;;6.26;74.86
34177;BME280;20450;49.074;9.158;2022-12-07T12:39:09;99782.94;;;6.78;72.77
34177;BME280;20450;49.074;9.158;2022-12-07T12:41:59;99778.50;;;7.41;71.64
34177;BME280;20450;49.074;9.158;2022-12-07T12:47:51;99776.63;;;8.33;68.12
34177;BME280;20450;49.074;9.158;2022-12-07T12:50:26;99760.41;;;8.54;66.58
34177;BME280;20450;49.074;9.158;2022-12-07T12:53:03;99763.03;;;8.47;65.93
34177;BME280;20450;49.074;9.158;2022-12-07T12:56:11;99771.41;;;8.03;66.93
34177;BME280;20450;49.074;9.158;2022-12-07T13:02:09;99773.03;;;7.77;67.97
34177;BME280;20450;49.074;9.158;2022-12-07T13:04:52;99763.16;;;7.56;69.07
34177;BME280;20450;49.074;9.158;2022-12-07T13:07:51;99761.69;;;7.75;68.48
34177;BME280;20450;49.074;9.158;2022-12-07T13:10:30;99753.66;;;7.60;68.85
34177;BME280;20450;49.074;9.158;2022-12-07T13:13:25;99759.19;;;7.52;69.21
34177;BME280;20450;49.074;9.158;2022-12-07T13:22:46;99750.44;;;6.87;71.52
34177;BME280;20450;49.074;9.158;2022-12-07T13:25:27;99742.75;;;6.84;71.35
34177;BME280;20450;49.074;9.158;2022-12-07T13:28:02;99743.44;;;6.57;72.05
34177;BME280;20450;49.074;9.158;2022-12-07T13:30:45;99748.34;;;6.54;73.06
34177;BME280;20450;49.074;9.158;2022-12-07T13:33:17;99743.72;;;6.48;73.51
34177;BME280;20450;49.074;9.158;2022-12-07T13:35:44;99753.66;;;6.47;74.01
34177;BME280;20450;49.074;9.158;2022-12-07T13:38:25;99740.50;;;6.38;74.16
34177;BME280;20450;49.074;9.158;2022-12-07T13:41:03;99737.81;;;6.38;73.54
34177;BME280;20450;49.074;9.158;2022-12-07T13:43:42;99737.28;;;6.28;73.89
34177;BME280;20450;49.074;9.158;2022-12-07T13:46:19;99744.00;;;6.24;74.43
34177;BME280;20450;49.074;9.158;2022-12-07T13:48:52;99741.69;;;6.21;74.50
34177;BME280;20450;49.074;9.158;2022-12-07T13:51:22;99742.72;;;6.20;74.21